Time;durP1;ratioP1;P1;durP2;ratioP2;P2;SDS_P1;SDS_P2;PMS_P1;PMS_P2;Temp;Humidity;BMP_temperature;BMP_pressure;BME280_temperature;BME280_humidity;BME280_pressure;Samples;Min_cycle;Max_cycle;Signal;HPM_P1;HPM_P2
2022/09/30 00:01:04;;;;;;;;;26.25;25.00;;;;;9.84;83.27;100426.94;5060993;28;45610;-78
2022/09/30 00:03:29;;;;;;;;;30.25;28.50;;;;;9.82;83.59;100436.94;5075505;28;45342;-78
2022/09/30 00:06:03;;;;;;;;;33.00;31.00;;;;;9.76;83.94;100429.69;5061038;28;45291;-79
2022/09/30 00:08:28;;;;;;;;;29.25;29.25;;;;;9.80;84.09;100449.56;5060875;27;46420;-78
2022/09/30 00:11:04;;;;;;;;;37.00;31.75;;;;;9.79;83.90;100447.91;5061312;28;45256;-78
2022/09/30 00:13:32;;;;;;;;;38.50;33.00;;;;;9.74;83.91;100451.09;5059629;28;45221;-79
2022/09/30 00:15:58;;;;;;;;;36.25;32.50;;;;;9.69;83.79;100453.44;5059913;28;45371;-79
2022/09/30 00:18:24;;;;;;;;;40.25;33.75;;;;;9.66;83.77;100461.72;5061003;28;45478;-79
2022/09/30 00:20:49;;;;;;;;;33.50;32.25;;;;;9.69;83.51;100472.00;5066040;28;45272;-79
2022/09/30 00:23:15;;;;;;;;;34.00;31.75;;;;;9.68;83.78;100473.84;5070346;27;45287;-79
2022/09/30 00:25:40;;;;;;;;;34.50;32.25;;;;;9.69;83.78;100464.88;5061560;28;45395;-79
2022/09/30 00:28:06;;;;;;;;;33.25;31.25;;;;;9.65;83.59;100468.88;5060144;28;45558;-79
2022/09/30 00:30:33;;;;;;;;;31.00;29.00;;;;;9.59;83.61;100461.63;5061434;28;46859;-78
2022/09/30 00:32:58;;;;;;;;;37.50;33.50;;;;;9.56;83.55;100461.97;5061754;28;45285;-79
2022/09/30 00:35:24;;;;;;;;;34.75;32.50;;;;;9.55;84.15;100462.97;5059427;28;45393;-79
2022/09/30 00:37:49;;;;;;;;;41.75;36.50;;;;;9.60;84.07;100477.38;5061010;28;45477;-79
2022/09/30 00:40:15;;;;;;;;;33.00;29.25;;;;;9.54;83.94;100466.59;5060884;28;45396;-79
2022/09/30 00:42:40;;;;;;;;;34.25;33.00;;;;;9.58;83.93;100465.28;5061247;28;45274;-79
2022/09/30 00:45:09;;;;;;;;;32.00;31.50;;;;;9.59;83.84;100472.22;5062226;28;45387;-79
2022/09/30 00:47:35;;;;;;;;;28.50;27.50;;;;;9.57;83.70;100467.09;5061094;28;46565;-79
2022/09/30 00:50:14;;;;;;;;;28.25;28.00;;;;;9.51;83.31;100467.78;5059573;28;46931;-79
2022/09/30 00:52:42;;;;;;;;;30.25;30.25;;;;;9.49;83.52;100459.19;5060269;28;45335;-79
2022/09/30 00:55:23;;;;;;;;;31.25;30.50;;;;;9.35;83.69;100450.13;5061008;28;45398;-78
2022/09/30 00:57:48;;;;;;;;;37.25;34.50;;;;;9.30;83.56;100450.66;5059953;28;48176;-79
2022/09/30 01:00:14;;;;;;;;;38.50;31.25;;;;;9.36;83.71;100469.53;5059429;28;45236;-79
2022/09/30 01:02:39;;;;;;;;;39.00;35.00;;;;;9.30;83.89;100466.56;5085629;27;45408;-79
2022/09/30 01:05:05;;;;;;;;;38.25;32.75;;;;;9.33;83.62;100468.88;5065226;27;45319;-79
2022/09/30 01:07:30;;;;;;;;;40.25;35.75;;;;;9.15;83.73;100453.19;5076508;28;46145;-78
2022/09/30 01:09:56;;;;;;;;;33.00;31.75;;;;;9.34;83.91;100478.47;5076623;28;47993;-79
2022/09/30 01:12:24;;;;;;;;;30.50;29.75;;;;;9.31;83.88;100475.38;5061186;28;45337;-78
2022/09/30 01:14:53;;;;;;;;;33.00;32.00;;;;;9.30;83.84;100477.19;5060074;28;45401;-79
2022/09/30 01:17:21;;;;;;;;;33.75;31.25;;;;;9.31;83.39;100485.97;5070048;28;46088;-79
2022/09/30 01:20:12;;;;;;;;;32.50;31.50;;;;;9.19;83.99;100483.66;5061208;28;45328;-78
2022/09/30 01:22:53;;;;;;;;;39.75;35.25;;;;;9.17;83.38;100483.03;5044693;28;46791;-79
2022/09/30 01:25:53;;;;;;;;;36.50;32.50;;;;;9.13;83.83;100486.19;5059510;28;45391;-79
2022/09/30 01:28:57;;;;;;;;;39.75;36.25;;;;;9.06;84.20;100470.97;5060993;28;45313;-79
2022/09/30 01:31:48;;;;;;;;;42.50;37.50;;;;;9.17;84.00;100482.19;5059969;28;48142;-79
2022/09/30 01:34:26;;;;;;;;;29.25;29.25;;;;;9.17;84.13;100476.91;5060933;28;45403;-79
2022/09/30 01:37:04;;;;;;;;;38.25;34.50;;;;;8.93;83.91;100445.00;5071151;28;45330;-78
2022/09/30 01:39:48;;;;;;;;;38.00;34.00;;;;;9.13;83.92;100480.91;5061916;28;45547;-79
2022/09/30 01:42:35;;;;;;;;;35.75;34.25;;;;;9.11;84.21;100472.28;5060900;28;45535;-79
2022/09/30 01:45:15;;;;;;;;;31.25;30.75;;;;;9.01;84.27;100459.22;5059550;28;45353;-78
2022/09/30 01:47:45;;;;;;;;;37.75;34.25;;;;;9.04;84.41;100464.19;5060570;28;45281;-79
2022/09/30 01:50:21;;;;;;;;;36.25;34.00;;;;;8.99;84.15;100461.22;5060543;28;45431;-79
2022/09/30 01:53:02;;;;;;;;;28.25;27.75;;;;;9.05;84.40;100473.78;5058748;28;47173;-79
2022/09/30 01:55:46;;;;;;;;;35.75;32.00;;;;;8.99;84.24;100470.00;5059629;28;45835;-79
2022/09/30 01:58:25;;;;;;;;;27.75;27.00;;;;;8.96;83.97;100476.47;5060714;28;45327;-78
2022/09/30 02:00:55;;;;;;;;;33.50;31.75;;;;;9.02;83.99;100476.78;5060555;28;45186;-79
2022/09/30 02:03:27;;;;;;;;;35.25;30.75;;;;;9.00;84.28;100473.47;5046041;28;45453;-79
2022/09/30 02:06:03;;;;;;;;;33.75;31.75;;;;;9.03;84.18;100473.13;5062867;28;45492;-79
2022/09/30 02:08:43;;;;;;;;;31.50;30.50;;;;;9.03;84.30;100487.22;5064650;28;45441;-79
2022/09/30 02:11:28;;;;;;;;;28.00;26.00;;;;;8.96;83.86;100483.59;5063928;28;45256;-79
2022/09/30 02:14:04;;;;;;;;;31.25;30.25;;;;;8.83;83.51;100476.19;5062038;28;47062;-79
2022/09/30 02:16:48;;;;;;;;;33.25;30.50;;;;;8.80;83.63;100482.63;5063702;28;45330;-79
2022/09/30 02:19:19;;;;;;;;;33.00;32.25;;;;;8.77;83.67;100476.84;5062159;28;45310;-79
2022/09/30 02:21:54;;;;;;;;;36.00;32.00;;;;;8.76;83.97;100473.38;5061920;28;47381;-79
2022/09/30 02:24:24;;;;;;;;;36.00;31.00;;;;;8.81;84.16;100481.66;5063793;28;45338;-79
2022/09/30 02:26:55;;;;;;;;;31.75;30.50;;;;;8.74;84.17;100469.22;5062321;28;45422;-79
2022/09/30 02:29:27;;;;;;;;;33.25;32.50;;;;;8.76;84.14;100483.97;5063929;28;45409;-79
2022/09/30 02:31:59;;;;;;;;;36.00;32.50;;;;;8.79;84.52;100478.31;5063586;28;45377;-79
2022/09/30 02:34:31;;;;;;;;;31.25;30.25;;;;;8.78;83.92;100481.97;5062931;28;46798;-79
2022/09/30 02:37:23;;;;;;;;;31.25;31.25;;;;;8.72;84.41;100466.75;5063240;28;45377;-79
2022/09/30 02:39:52;;;;;;;;;29.75;29.00;;;;;8.79;84.47;100470.38;5063479;28;45550;-79
2022/09/30 02:42:28;;;;;;;;;29.25;27.50;;;;;8.79;84.06;100480.13;5078216;28;47193;-79
2022/09/30 02:44:58;;;;;;;;;29.50;28.50;;;;;8.83;83.67;100484.13;5061523;28;47354;-79
2022/09/30 02:47:44;;;;;;;;;28.75;25.00;;;;;8.74;83.83;100475.34;5062634;28;45369;-79
2022/09/30 02:50:19;;;;;;;;;28.00;24.50;;;;;8.79;83.84;100480.13;5061327;28;45278;-79
2022/09/30 02:52:47;;;;;;;;;22.00;21.33;;;;;8.80;83.66;100479.16;5061157;28;46622;-79
2022/09/30 02:55:37;;;;;;;;;5.25;3.00;;;;;8.80;83.89;100471.22;5061570;28;46259;-79
2022/09/30 02:58:16;;;;;;;;;25.25;24.50;;;;;8.74;83.14;100475.34;5062825;28;45409;-79
2022/09/30 03:00:41;;;;;;;;;30.25;27.50;;;;;8.66;83.17;100460.31;5062744;28;45387;-80
2022/09/30 03:03:14;;;;;;;;;29.75;28.75;;;;;8.58;83.02;100457.66;5075438;28;45303;-78
2022/09/30 03:05:39;;;;;;;;;28.00;26.00;;;;;8.62;83.24;100476.72;5048352;28;45575;-79
2022/09/30 03:08:05;;;;;;;;;19.67;19.67;;;;;8.59;83.53;100481.34;5060834;28;45953;-79
2022/09/30 03:10:32;;;;;;;;;28.00;25.25;;;;;8.64;83.69;100488.78;5062734;28;45219;-79
2022/09/30 03:13:22;;;;;;;;;29.00;26.50;;;;;8.66;83.65;100492.09;5061225;28;45978;-78
2022/09/30 03:15:59;;;;;;;;;33.25;28.50;;;;;8.59;83.24;100496.38;5063127;28;46636;-79
2022/09/30 03:18:35;;;;;;;;;27.25;26.00;;;;;8.57;83.67;100501.88;5067515;28;45391;-79
2022/09/30 03:21:28;;;;;;;;;29.75;29.00;;;;;8.51;83.22;100504.31;5060645;28;45380;-79
2022/09/30 03:24:10;;;;;;;;;24.75;23.75;;;;;8.44;83.68;100505.00;5061673;28;45306;-79
2022/09/30 03:26:54;;;;;;;;;26.75;26.75;;;;;8.50;83.63;100515.94;5072869;28;46821;-79
2022/09/30 03:30:02;;;;;;;;;25.50;25.25;;;;;8.40;83.64;100510.78;5062831;27;45217;-79
2022/09/30 03:32:32;;;;;;;;;23.75;23.75;;;;;8.48;83.38;100525.84;5061834;28;45382;-79
2022/09/30 03:35:12;;;;;;;;;27.25;26.75;;;;;8.47;83.76;100530.31;5061791;28;45442;-79
2022/09/30 03:37:48;;;;;;;;;21.50;17.50;;;;;8.41;83.50;100534.44;5060056;28;48299;-79
2022/09/30 03:40:25;;;;;;;;;30.50;29.00;;;;;8.38;82.84;100536.63;5060551;28;45414;-79
2022/09/30 03:43:01;;;;;;;;;25.00;24.00;;;;;8.38;82.95;100548.00;5064872;28;45405;-79
2022/09/30 03:45:30;;;;;;;;;22.25;22.00;;;;;8.37;82.85;100545.53;5069024;28;47434;-79
2022/09/30 03:48:02;;;;;;;;;21.25;20.75;;;;;8.30;83.11;100540.06;5061378;28;46474;-79
2022/09/30 03:50:30;;;;;;;;;23.50;22.75;;;;;8.26;83.44;100536.91;5061536;28;45338;-79
2022/09/30 03:52:55;;;;;;;;;21.00;19.75;;;;;8.28;83.40;100547.34;5060372;28;45320;-79
2022/09/30 03:55:23;;;;;;;;;25.00;24.25;;;;;8.26;83.56;100546.69;5059949;28;47337;-79
2022/09/30 03:57:50;;;;;;;;;23.00;20.75;;;;;8.33;83.85;100564.41;5061251;28;45653;-79
2022/09/30 04:00:15;;;;;;;;;21.75;20.50;;;;;8.30;83.68;100570.03;5061313;28;45414;-79
2022/09/30 04:02:40;;;;;;;;;17.50;17.50;;;;;8.29;84.02;100560.44;5070977;28;45342;-79
2022/09/30 04:05:07;;;;;;;;;23.25;22.75;;;;;8.31;84.31;100569.03;5065017;27;45303;-78
2022/09/30 04:07:33;;;;;;;;;24.25;21.00;;;;;8.21;84.16;100563.88;5059587;28;47397;-79
2022/09/30 04:09:59;;;;;;;;;26.00;23.25;;;;;8.26;84.50;100579.28;5060883;28;45342;-79
2022/09/30 04:12:25;;;;;;;;;23.25;22.75;;;;;8.25;84.02;100576.78;5060793;28;45327;-79
2022/09/30 04:14:51;;;;;;;;;25.75;24.75;;;;;8.27;84.52;100585.41;5059516;28;46140;-79
2022/09/30 04:17:16;;;;;;;;;32.75;32.25;;;;;8.22;83.64;100588.53;5060332;28;46178;-79
2022/09/30 04:19:41;;;;;;;;;30.25;30.25;;;;;8.18;83.92;100592.53;5060695;28;45394;-78
2022/09/30 04:22:07;;;;;;;;;25.25;25.00;;;;;8.19;84.19;100610.88;5059378;28;45234;-78
2022/09/30 04:24:33;;;;;;;;;32.25;32.25;;;;;8.18;84.10;100611.06;5067180;28;47163;-78
2022/09/30 04:26:58;;;;;;;;;30.75;28.00;;;;;8.11;83.91;100604.75;5066156;27;45344;-79
2022/09/30 04:29:24;;;;;;;;;30.50;29.75;;;;;8.15;83.65;100616.66;5060375;28;45434;-78
2022/09/30 04:31:49;;;;;;;;;30.75;29.25;;;;;7.93;83.28;100614.44;5060632;28;45262;-78
2022/09/30 04:34:14;;;;;;;;;28.75;26.25;;;;;8.05;84.06;100609.69;5060434;28;45406;-79
2022/09/30 04:36:40;;;;;;;;;33.00;31.25;;;;;8.13;83.11;100623.94;5060183;28;46163;-78
2022/09/30 04:39:05;;;;;;;;;34.75;32.50;;;;;8.06;83.11;100621.91;5060210;28;45239;-78
2022/09/30 04:41:32;;;;;;;;;28.50;26.50;;;;;8.00;83.13;100627.03;5060371;28;45280;-78
2022/09/30 04:43:58;;;;;;;;;32.75;29.75;;;;;8.04;83.51;100631.84;5060107;28;45359;-78
2022/09/30 04:46:24;;;;;;;;;31.75;30.25;;;;;8.01;83.53;100640.13;5058471;28;48227;-79
2022/09/30 04:48:50;;;;;;;;;30.50;29.25;;;;;7.99;83.73;100650.03;5060003;28;45393;-78
2022/09/30 04:51:18;;;;;;;;;31.75;29.00;;;;;7.95;83.33;100646.03;5058588;28;45264;-78
2022/09/30 04:53:44;;;;;;;;;33.75;33.00;;;;;7.96;83.68;100645.88;5058765;28;47342;-78
2022/09/30 04:56:10;;;;;;;;;37.00;33.75;;;;;7.99;83.61;100647.38;5058114;28;47306;-78
2022/09/30 04:58:36;;;;;;;;;35.25;33.25;;;;;7.92;83.52;100641.91;5058782;28;45607;-78
2022/09/30 05:01:13;;;;;;;;;31.75;29.75;;;;;7.86;83.20;100637.25;5059857;28;45311;-77
2022/09/30 05:03:39;;;;;;;;;29.75;29.50;;;;;7.86;83.39;100653.13;5072696;28;47424;-78
2022/09/30 05:06:05;;;;;;;;;29.75;26.75;;;;;7.90;83.80;100659.75;5058168;28;46218;-78
2022/09/30 05:08:34;;;;;;;;;31.50;28.50;;;;;7.78;83.12;100647.81;5059540;28;45503;-77
2022/09/30 05:11:03;;;;;;;;;28.25;28.00;;;;;7.82;83.82;100649.13;5058480;27;45327;-78
2022/09/30 05:13:34;;;;;;;;;26.50;26.00;;;;;7.85;83.73;100662.06;5059634;28;45340;-77
2022/09/30 05:16:00;;;;;;;;;35.75;33.50;;;;;7.79;83.74;100647.66;5062752;28;45315;-78
2022/09/30 05:18:26;;;;;;;;;32.25;31.50;;;;;7.85;83.39;100666.50;5066276;27;45240;-78
2022/09/30 05:20:53;;;;;;;;;27.75;26.50;;;;;7.84;83.49;100655.09;5059420;28;45427;-78
2022/09/30 05:23:19;;;;;;;;;32.75;29.75;;;;;7.80;83.54;100651.94;5059356;28;45602;-77
2022/09/30 05:25:45;;;;;;;;;25.75;25.50;;;;;7.89;83.16;100670.50;5059226;28;46341;-78
2022/09/30 05:28:11;;;;;;;;;34.25;28.00;;;;;7.87;83.46;100668.00;5058025;28;45347;-75
2022/09/30 05:30:37;;;;;;;;;34.00;32.25;;;;;7.82;83.49;100668.47;5059450;28;45367;-77
2022/09/30 05:33:02;;;;;;;;;31.00;31.00;;;;;7.76;83.77;100663.00;5058034;28;46279;-78
2022/09/30 05:35:28;;;;;;;;;33.00;29.00;;;;;7.78;83.80;100671.63;5054487;28;46093;-77
2022/09/30 05:37:53;;;;;;;;;37.75;32.50;;;;;7.70;83.78;100667.09;5072749;27;46036;-76
2022/09/30 05:40:19;;;;;;;;;30.25;27.00;;;;;7.67;83.98;100662.13;5058187;28;45295;-77
2022/09/30 05:42:45;;;;;;;;;31.00;30.25;;;;;7.69;83.86;100668.06;5059181;28;45299;-77
2022/09/30 05:45:11;;;;;;;;;32.00;30.50;;;;;7.75;84.30;100669.28;5059217;28;45607;-77
2022/09/30 05:47:36;;;;;;;;;33.00;31.50;;;;;7.77;84.54;100677.88;5059041;28;45379;-76
2022/09/30 05:50:02;;;;;;;;;31.25;30.25;;;;;7.85;84.29;100699.09;5059387;28;45438;-76
2022/09/30 05:52:27;;;;;;;;;34.50;31.25;;;;;7.83;84.02;100693.13;5059109;28;45465;-76
2022/09/30 05:54:54;;;;;;;;;29.00;28.25;;;;;7.86;84.79;100700.75;5057730;28;47131;-76
2022/09/30 05:57:19;;;;;;;;;31.50;29.50;;;;;7.78;84.54;100684.84;5059187;28;45394;-75
2022/09/30 05:59:46;;;;;;;;;33.25;33.00;;;;;7.89;84.15;100700.44;5058996;28;45303;-76
2022/09/30 06:02:12;;;;;;;;;34.25;31.00;;;;;7.89;84.01;100695.16;5064772;28;45398;-76
2022/09/30 06:04:37;;;;;;;;;40.25;36.00;;;;;7.92;84.64;100701.94;5066991;27;46177;-76
2022/09/30 06:07:02;;;;;;;;;37.25;31.75;;;;;7.94;84.29;100702.63;5058807;28;45406;-76
2022/09/30 06:09:28;;;;;;;;;36.75;32.75;;;;;7.85;84.01;100699.09;5058032;28;45584;-77
2022/09/30 06:11:56;;;;;;;;;34.75;33.00;;;;;7.90;84.28;100707.38;5070639;28;45459;-76
2022/09/30 06:14:22;;;;;;;;;35.50;32.75;;;;;7.93;84.35;100704.41;5066747;27;46304;-76
2022/09/30 06:16:48;;;;;;;;;33.00;30.75;;;;;7.93;84.52;100716.84;5058071;28;45356;-76
2022/09/30 06:19:14;;;;;;;;;32.50;32.50;;;;;7.95;84.49;100722.78;5058914;28;45145;-77
2022/09/30 06:21:39;;;;;;;;;36.00;34.50;;;;;7.99;84.70;100724.13;5058752;28;45216;-75
2022/09/30 06:24:06;;;;;;;;;32.00;30.00;;;;;8.01;84.48;100729.28;5058761;28;45245;-76
2022/09/30 06:26:31;;;;;;;;;36.25;33.25;;;;;8.00;84.50;100722.31;5058610;28;45345;-76
2022/09/30 06:28:57;;;;;;;;;12.75;11.00;;;;;8.03;83.95;100735.25;5057279;28;45335;-76
2022/09/30 06:31:22;;;;;;;;;30.25;30.25;;;;;8.07;84.19;100742.72;5065708;28;45287;-77
2022/09/30 06:33:51;;;;;;;;;33.75;30.75;;;;;7.99;84.46;100734.72;5078730;28;45400;-77
2022/09/30 06:36:17;;;;;;;;;31.00;31.00;;;;;8.01;84.63;100743.34;5058721;28;45280;-76
2022/09/30 06:38:42;;;;;;;;;28.75;26.25;;;;;7.97;84.49;100744.66;5058729;28;45231;-74
2022/09/30 06:41:08;;;;;;;;;31.50;29.25;;;;;8.05;84.59;100749.16;5056967;28;46972;-77
2022/09/30 06:43:33;;;;;;;;;29.75;27.50;;;;;8.03;85.19;100741.38;5058478;28;45518;-77
2022/09/30 06:46:00;;;;;;;;;38.75;34.00;;;;;8.05;84.82;100743.88;5058098;28;45350;-76
2022/09/30 06:48:28;;;;;;;;;34.25;32.00;;;;;7.99;85.19;100737.38;5057360;28;45303;-76
2022/09/30 06:50:56;;;;;;;;;37.50;33.75;;;;;8.05;85.36;100755.28;5066781;28;45264;-76
2022/09/30 06:53:22;;;;;;;;;40.50;35.75;;;;;8.07;85.38;100749.81;5078240;27;47363;-77
2022/09/30 06:55:47;;;;;;;;;36.75;33.50;;;;;8.15;85.29;100765.75;5060376;28;45353;-76
2022/09/30 06:58:14;;;;;;;;;45.50;39.50;;;;;8.20;85.60;100771.41;5061681;28;45697;-75
2022/09/30 07:00:40;;;;;;;;;48.50;39.50;;;;;8.21;86.01;100764.31;5060381;28;45465;-76
2022/09/30 07:03:08;;;;;;;;;43.00;38.00;;;;;8.29;86.08;100774.09;5074821;28;45260;-79
2022/09/30 07:05:35;;;;;;;;;44.50;37.75;;;;;8.30;86.03;100765.16;5060234;28;45399;-78
2022/09/30 07:08:00;;;;;;;;;49.00;40.00;;;;;8.35;86.39;100773.44;5060391;28;45661;-78
2022/09/30 07:10:26;;;;;;;;;45.00;38.00;;;;;8.41;86.29;100766.72;5060121;28;46414;-78
2022/09/30 07:12:52;;;;;;;;;38.50;35.00;;;;;8.50;87.24;100759.63;5061651;28;45770;-78
2022/09/30 07:15:22;;;;;;;;;44.75;38.00;;;;;8.63;86.86;100767.97;5061508;28;45350;-78
2022/09/30 07:17:55;;;;;;;;;51.00;42.75;;;;;8.70;86.97;100773.44;5071463;28;45523;-79
2022/09/30 07:20:21;;;;;;;;;47.25;39.75;;;;;8.75;86.68;100775.63;5059757;28;45639;-78
2022/09/30 07:22:47;;;;;;;;;50.75;42.00;;;;;8.74;87.18;100766.03;5058110;28;47421;-78
2022/09/30 07:25:13;;;;;;;;;53.75;44.25;;;;;8.84;87.41;100777.31;5059745;28;45529;-78
2022/09/30 07:27:38;;;;;;;;;57.50;45.25;;;;;8.90;87.46;100770.53;5058433;28;45428;-78
2022/09/30 07:30:04;;;;;;;;;61.50;49.00;;;;;9.00;87.02;100773.00;5061903;28;45398;-77
2022/09/30 07:32:30;;;;;;;;;65.50;52.25;;;;;9.11;87.74;100775.38;5060401;28;45504;-78
2022/09/30 07:34:56;;;;;;;;;67.25;55.00;;;;;9.20;87.58;100777.06;5058984;28;45805;-77
2022/09/30 07:37:24;;;;;;;;;67.00;53.75;;;;;9.31;87.76;100786.47;5061887;28;45471;-79
2022/09/30 07:39:49;;;;;;;;;74.25;61.75;;;;;9.37;87.94;100771.72;5075982;28;45442;-77
2022/09/30 07:42:19;;;;;;;;;77.25;63.25;;;;;9.52;88.28;100781.69;5067735;27;46444;-77
2022/09/30 07:44:44;;;;;;;;;78.50;65.75;;;;;9.58;88.30;100778.38;5046941;28;45390;-77
2022/09/30 07:47:11;;;;;;;;;70.75;54.75;;;;;9.66;88.19;100781.03;5061215;28;45422;-77
2022/09/30 07:49:37;;;;;;;;;73.25;60.00;;;;;9.72;88.23;100776.84;5061546;28;45308;-77
2022/09/30 07:52:03;;;;;;;;;72.75;59.25;;;;;9.82;88.49;100779.34;5060934;28;47120;-77
2022/09/30 07:54:31;;;;;;;;;76.00;63.50;;;;;9.93;88.27;100781.66;5062922;28;45145;-78
2022/09/30 07:56:57;;;;;;;;;76.50;62.75;;;;;10.00;88.43;100768.53;5061257;28;45449;-77
2022/09/30 07:59:23;;;;;;;;;78.00;66.00;;;;;10.07;88.19;100772.16;5060180;28;45439;-80
2022/09/30 08:01:49;;;;;;;;;75.00;61.25;;;;;10.16;88.53;100778.28;5074142;28;47118;-78
2022/09/30 08:04:16;;;;;;;;;73.75;59.75;;;;;10.29;88.82;100776.91;5086035;27;45456;-77
2022/09/30 08:06:46;;;;;;;;;75.75;59.25;;;;;10.34;88.71;100771.91;5054279;28;45386;-80
2022/09/30 08:09:14;;;;;;;;;74.00;59.25;;;;;10.43;88.93;100776.19;5060477;28;45537;-79
2022/09/30 08:11:41;;;;;;;;;68.75;53.50;;;;;10.49;89.09;100772.03;5059473;28;46328;-78
2022/09/30 08:14:11;;;;;;;;;64.00;51.50;;;;;10.56;88.70;100765.03;5060890;28;45351;-80
2022/09/30 08:16:37;;;;;;;;;69.25;54.25;;;;;10.65;88.88;100765.00;5060402;28;45341;-79
2022/09/30 08:19:02;;;;;;;;;66.25;52.25;;;;;10.55;88.81;100738.63;5059143;28;46381;-81
2022/09/30 08:21:28;;;;;;;;;64.25;51.75;;;;;10.71;89.25;100762.47;5060929;28;46392;-80
2022/09/30 08:23:54;;;;;;;;;63.00;50.25;;;;;10.80;88.82;100781.03;5060354;28;45335;-79
2022/09/30 08:26:20;;;;;;;;;67.50;53.00;;;;;10.83;89.05;100778.00;5061577;28;45487;-79
2022/09/30 08:28:46;;;;;;;;;63.50;49.25;;;;;10.91;88.67;100775.31;5060320;28;45330;-79
2022/09/30 08:31:14;;;;;;;;;63.50;51.50;;;;;10.94;88.50;100767.00;5058778;28;48093;-79
2022/09/30 08:33:40;;;;;;;;;62.75;50.00;;;;;10.91;88.81;100759.38;5064519;28;45398;-80
2022/09/30 08:36:09;;;;;;;;;64.25;49.50;;;;;11.07;89.05;100785.03;5060004;28;45307;-79
2022/09/30 08:38:35;;;;;;;;;59.75;48.50;;;;;11.11;88.79;100778.34;5058608;28;47611;-78
2022/09/30 08:41:20;;;;;;;;;57.00;46.75;;;;;11.19;89.20;100792.59;5060583;28;46590;-82
2022/09/30 08:44:05;;;;;;;;;52.25;44.00;;;;;11.27;89.47;100799.69;5028988;28;45600;-81
2022/09/30 08:47:08;;;;;;;;;51.00;39.75;;;;;11.34;89.36;100793.47;5059333;28;45359;-81
2022/09/30 08:49:55;;;;;;;;;55.00;45.75;;;;;11.42;89.58;100795.25;5063365;28;45473;-82
2022/09/30 08:52:33;;;;;;;;;47.25;40.00;;;;;11.47;89.67;100787.53;5052281;28;48386;-82
2022/09/30 08:54:59;;;;;;;;;54.25;45.25;;;;;11.53;89.58;100788.69;5084991;27;45329;-84
2022/09/30 08:57:33;;;;;;;;;50.75;42.00;;;;;11.65;89.56;100796.25;5056225;28;45299;-81
2022/09/30 09:00:06;;;;;;;;;52.50;43.75;;;;;11.69;89.18;100793.03;5064998;28;46037;-82
2022/09/30 09:02:58;;;;;;;;;48.00;41.00;;;;;11.76;89.20;100798.44;5070781;28;45598;-81
2022/09/30 09:05:46;;;;;;;;;50.00;40.25;;;;;11.84;89.51;100790.41;5081483;28;45519;-81
2022/09/30 09:08:48;;;;;;;;;42.75;36.00;;;;;11.93;89.48;100795.63;5063085;28;45535;-81
2022/09/30 09:11:22;;;;;;;;;38.75;33.75;;;;;11.93;89.70;100782.31;5064210;27;46949;-83
2022/09/30 09:14:00;;;;;;;;;40.75;35.50;;;;;11.98;89.50;100788.75;5057965;28;48498;-83
2022/09/30 09:16:58;;;;;;;;;35.75;33.00;;;;;12.07;89.09;100794.88;5067753;28;45297;-81
2022/09/30 09:19:28;;;;;;;;;45.25;37.75;;;;;12.17;89.27;100804.41;5039124;28;45713;-82
2022/09/30 09:21:58;;;;;;;;;45.75;38.50;;;;;12.19;88.88;100803.25;5038323;28;46464;-81
2022/09/30 09:24:25;;;;;;;;;42.00;36.25;;;;;12.29;88.52;100792.28;5057551;28;46477;-81
2022/09/30 09:26:53;;;;;;;;;40.25;35.00;;;;;12.41;88.28;100791.81;5058713;28;45464;-81
2022/09/30 09:29:42;;;;;;;;;45.00;38.00;;;;;12.48;88.69;100790.91;5058596;28;45366;-82
2022/09/30 09:32:17;;;;;;;;;46.25;36.75;;;;;12.50;88.59;100783.56;5059018;28;45983;-82
2022/09/30 09:34:45;;;;;;;;;41.75;36.50;;;;;12.66;88.19;100805.66;5074524;28;46795;-82
2022/09/30 09:37:10;;;;;;;;;42.75;36.25;;;;;12.78;87.75;100813.19;5062478;28;45460;-82
2022/09/30 09:40:06;;;;;;;;;50.25;40.75;;;;;12.90;87.51;100811.69;5050443;28;45216;-81
2022/09/30 09:42:48;;;;;;;;;41.00;34.75;;;;;13.03;87.22;100819.03;5061207;28;45677;-81
2022/09/30 09:45:19;;;;;;;;;39.75;35.00;;;;;13.18;86.40;100823.47;5067864;28;47165;-81
2022/09/30 09:47:50;;;;;;;;;42.25;35.25;;;;;13.31;86.25;100825.44;5085011;27;45353;-82
2022/09/30 09:50:24;;;;;;;;;36.67;33.00;;;;;13.42;85.94;100824.13;5064689;28;45495;-80
2022/09/30 09:52:57;;;;;;;;;31.50;30.50;;;;;13.52;84.01;100807.81;5079100;28;46244;-80
2022/09/30 09:55:22;;;;;;;;;33.67;31.00;;;;;13.68;83.75;100804.84;5075367;28;48637;-81
2022/09/30 09:58:04;;;;;;;;;34.67;31.67;;;;;13.86;84.38;100796.38;5064484;28;45332;-82
2022/09/30 10:03:17;;;;;;;;;33.33;30.67;;;;;14.26;84.92;100811.84;5080613;28;45319;-82
2022/09/30 10:05:46;;;;;;;;;31.33;29.33;;;;;14.36;83.77;100807.97;5061171;28;45449;-80
2022/09/30 10:08:22;;;;;;;;;31.33;30.33;;;;;14.57;83.08;100812.38;5059251;28;45903;-82
2022/09/30 10:10:47;;;;;;;;;37.33;34.00;;;;;14.70;83.45;100811.59;5061305;28;45315;-81
2022/09/30 10:13:43;;;;;;;;;34.00;31.67;;;;;14.83;82.43;100815.41;5060179;28;46202;-81
2022/09/30 10:16:29;;;;;;;;;44.75;38.50;;;;;14.86;82.38;100818.50;5053574;28;47862;-80
2022/09/30 10:18:56;;;;;;;;;31.33;29.67;;;;;14.89;82.50;100817.28;5052494;28;46415;-81
2022/09/30 10:21:24;;;;;;;;;26.00;25.33;;;;;14.88;81.72;100820.97;5048761;28;45268;-78
2022/09/30 10:23:50;;;;;;;;;25.00;25.00;;;;;14.83;81.44;100815.41;5060573;28;46303;-80
2022/09/30 10:26:21;;;;;;;;;19.00;19.00;;;;;14.86;81.70;100817.66;5062817;28;46315;-80
2022/09/30 10:28:55;;;;;;;;;16.67;16.67;;;;;14.90;81.44;100816.25;5063602;28;45311;-80
2022/09/30 10:31:40;;;;;;;;;20.33;20.33;;;;;14.94;81.02;100816.66;5062967;28;45295;-79
2022/09/30 10:34:26;;;;;;;;;22.00;22.00;;;;;14.97;79.63;100816.28;5060742;28;46352;-80
2022/09/30 10:36:53;;;;;;;;;27.00;25.33;;;;;14.92;79.29;100808.00;5064579;28;45310;-81
2022/09/30 10:39:33;;;;;;;;;27.33;25.67;;;;;14.93;79.54;100810.47;5066231;28;45752;-80
2022/09/30 10:42:03;;;;;;;;;21.00;20.00;;;;;14.93;79.24;100809.69;5077436;28;44681;-82
2022/09/30 10:44:29;;;;;;;;;25.67;23.67;;;;;15.00;79.58;100802.50;5066364;28;46015;-81
2022/09/30 10:47:01;;;;;;;;;27.67;27.00;;;;;15.11;79.79;100804.56;5068273;28;47508;-80
2022/09/30 10:49:35;;;;;;;;;31.33;28.67;;;;;15.21;78.32;100789.97;5063164;28;45977;-80
2022/09/30 10:52:02;;;;;;;;;30.00;29.33;;;;;15.29;77.32;100796.97;5062267;28;45405;-79
2022/09/30 10:54:55;;;;;;;;;27.00;25.33;;;;;15.35;78.22;100801.50;5061437;28;45552;-80
2022/09/30 10:57:30;;;;;;;;;24.33;23.33;;;;;15.44;78.71;100812.84;5060752;28;46734;-79
2022/09/30 11:00:05;;;;;;;;;23.00;23.00;;;;;15.44;79.04;100799.47;5076906;27;45471;-79
2022/09/30 11:02:39;;;;;;;;;27.67;27.67;;;;;15.52;79.05;100809.97;5086010;27;45316;-80
2022/09/30 11:05:23;;;;;;;;;26.00;24.67;;;;;15.53;78.84;100803.56;5065282;28;45350;-79
2022/09/30 11:08:13;;;;;;;;;22.67;22.67;;;;;15.63;78.60;100803.97;5061361;28;45940;-80
2022/09/30 11:10:50;;;;;;;;;21.33;21.33;;;;;15.71;76.95;100796.78;5061729;28;45157;-79
2022/09/30 11:13:27;;;;;;;;;16.67;16.67;;;;;15.87;75.76;100795.53;5061175;28;45323;-79
2022/09/30 11:16:13;;;;;;;;;18.67;18.00;;;;;15.93;73.10;100797.38;5064454;28;45520;-80
2022/09/30 11:18:59;;;;;;;;;21.00;20.33;;;;;16.10;72.94;100794.28;5064667;28;47501;-79
2022/09/30 11:21:43;;;;;;;;;22.00;21.67;;;;;16.26;72.97;100790.31;5061142;28;45446;-79
2022/09/30 11:24:30;;;;;;;;;20.00;19.00;;;;;16.37;72.70;100784.28;5061243;28;45428;-78
2022/09/30 11:27:48;;;;;;;;;18.00;18.00;;;;;16.65;72.32;100791.19;5061550;28;45365;-79
2022/09/30 11:30:38;;;;;;;;;20.00;19.00;;;;;16.88;71.73;100792.50;5035357;28;47046;-76
2022/09/30 11:33:19;;;;;;;;;17.67;17.67;;;;;17.06;70.16;100804.38;5069622;28;45371;-80
2022/09/30 11:35:53;;;;;;;;;37.33;33.00;;;;;17.27;69.47;100795.19;5088281;27;45263;-79
2022/09/30 11:38:41;;;;;;;;;22.00;22.00;;;;;17.49;70.38;100794.81;5059204;28;45533;-79